sensor_id;sensor_type;location;lat;lon;timestamp;P1;durP1;ratioP1;P2;durP2;ratioP2
19049;SDS011;9657;45.940;12.840;2023-05-16T00:02:10;4.95;;;1.25;;
19049;SDS011;9657;45.940;12.840;2023-05-16T00:04:37;3.17;;;1.27;;
19049;SDS011;9657;45.940;12.840;2023-05-16T00:07:05;2.65;;;1.23;;
19049;SDS011;9657;45.940;12.840;2023-05-16T00:09:32;2.47;;;1.10;;
19049;SDS011;9657;45.940;12.840;2023-05-16T00:11:59;1.58;;;0.93;;
19049;SDS011;9657;45.940;12.840;2023-05-16T00:14:26;3.03;;;1.10;;
19049;SDS011;9657;45.940;12.840;2023-05-16T00:16:55;2.03;;;1.00;;
19049;SDS011;9657;45.940;12.840;2023-05-16T00:19:23;4.50;;;1.30;;
19049;SDS011;9657;45.940;12.840;2023-05-16T00:21:50;2.10;;;1.05;;
19049;SDS011;9657;45.940;12.840;2023-05-16T00:24:18;3.63;;;1.10;;
19049;SDS011;9657;45.940;12.840;2023-05-16T00:26:45;2.08;;;1.20;;
19049;SDS011;9657;45.940;12.840;2023-05-16T00:29:12;1.52;;;1.08;;
19049;SDS011;9657;45.940;12.840;2023-05-16T00:31:39;5.93;;;1.65;;
19049;SDS011;9657;45.940;12.840;2023-05-16T00:34:07;1.88;;;1.25;;
19049;SDS011;9657;45.940;12.840;2023-05-16T00:36:34;3.20;;;1.20;;
19049;SDS011;9657;45.940;12.840;2023-05-16T00:39:02;2.28;;;1.25;;
19049;SDS011;9657;45.940;12.840;2023-05-16T00:41:29;2.70;;;1.15;;
19049;SDS011;9657;45.940;12.840;2023-05-16T00:43:56;2.97;;;1.20;;
19049;SDS011;9657;45.940;12.840;2023-05-16T00:46:23;1.45;;;0.93;;
19049;SDS011;9657;45.940;12.840;2023-05-16T00:48:50;2.95;;;0.98;;
19049;SDS011;9657;45.940;12.840;2023-05-16T00:51:19;1.58;;;1.00;;
19049;SDS011;9657;45.940;12.840;2023-05-16T00:53:46;3.75;;;1.05;;
19049;SDS011;9657;45.940;12.840;2023-05-16T00:56:13;1.63;;;1.13;;
19049;SDS011;9657;45.940;12.840;2023-05-16T00:58:41;1.10;;;0.90;;
19049;SDS011;9657;45.940;12.840;2023-05-16T01:03:43;2.88;;;1.00;;
19049;SDS011;9657;45.940;12.840;2023-05-16T01:06:11;2.08;;;0.98;;
19049;SDS011;9657;45.940;12.840;2023-05-16T01:08:39;2.30;;;1.10;;
19049;SDS011;9657;45.940;12.840;2023-05-16T01:11:07;1.48;;;0.95;;
19049;SDS011;9657;45.940;12.840;2023-05-16T01:13:40;3.33;;;1.23;;
19049;SDS011;9657;45.940;12.840;2023-05-16T01:16:15;3.13;;;1.30;;
19049;SDS011;9657;45.940;12.840;2023-05-16T01:18:50;2.67;;;1.45;;
19049;SDS011;9657;45.940;12.840;2023-05-16T01:21:24;3.00;;;1.27;;
19049;SDS011;9657;45.940;12.840;2023-05-16T01:24:08;1.50;;;1.00;;
19049;SDS011;9657;45.940;12.840;2023-05-16T01:26:40;6.00;;;1.20;;
19049;SDS011;9657;45.940;12.840;2023-05-16T01:29:07;2.78;;;1.27;;
19049;SDS011;9657;45.940;12.840;2023-05-16T01:31:35;3.07;;;1.37;;
19049;SDS011;9657;45.940;12.840;2023-05-16T01:34:02;1.90;;;1.20;;
19049;SDS011;9657;45.940;12.840;2023-05-16T01:36:29;2.65;;;1.00;;
19049;SDS011;9657;45.940;12.840;2023-05-16T01:39:08;3.65;;;1.00;;
19049;SDS011;9657;45.940;12.840;2023-05-16T01:41:42;2.60;;;1.10;;
19049;SDS011;9657;45.940;12.840;2023-05-16T01:44:17;2.95;;;1.13;;
19049;SDS011;9657;45.940;12.840;2023-05-16T01:46:49;3.92;;;1.15;;
19049;SDS011;9657;45.940;12.840;2023-05-16T01:49:23;1.95;;;1.20;;
19049;SDS011;9657;45.940;12.840;2023-05-16T01:51:53;2.03;;;1.02;;
19049;SDS011;9657;45.940;12.840;2023-05-16T01:54:25;1.52;;;0.90;;
19049;SDS011;9657;45.940;12.840;2023-05-16T01:56:58;3.03;;;1.30;;
19049;SDS011;9657;45.940;12.840;2023-05-16T01:59:28;2.33;;;1.00;;
19049;SDS011;9657;45.940;12.840;2023-05-16T02:01:56;2.75;;;1.20;;
19049;SDS011;9657;45.940;12.840;2023-05-16T02:04:23;1.73;;;1.10;;
19049;SDS011;9657;45.940;12.840;2023-05-16T02:06:50;1.35;;;0.93;;
19049;SDS011;9657;45.940;12.840;2023-05-16T02:09:18;2.55;;;1.00;;
19049;SDS011;9657;45.940;12.840;2023-05-16T02:11:45;2.72;;;1.17;;
19049;SDS011;9657;45.940;12.840;2023-05-16T02:14:13;2.90;;;1.13;;
19049;SDS011;9657;45.940;12.840;2023-05-16T02:16:40;2.05;;;1.02;;
19049;SDS011;9657;45.940;12.840;2023-05-16T02:19:07;1.73;;;1.10;;
19049;SDS011;9657;45.940;12.840;2023-05-16T02:21:34;2.38;;;1.20;;
19049;SDS011;9657;45.940;12.840;2023-05-16T02:24:01;3.03;;;1.50;;
19049;SDS011;9657;45.940;12.840;2023-05-16T02:26:29;2.75;;;1.15;;
19049;SDS011;9657;45.940;12.840;2023-05-16T02:28:56;2.15;;;1.17;;
19049;SDS011;9657;45.940;12.840;2023-05-16T02:31:28;3.83;;;1.10;;
19049;SDS011;9657;45.940;12.840;2023-05-16T02:33:56;2.10;;;1.00;;
19049;SDS011;9657;45.940;12.840;2023-05-16T02:36:23;3.05;;;1.10;;
19049;SDS011;9657;45.940;12.840;2023-05-16T02:38:50;2.78;;;1.17;;
19049;SDS011;9657;45.940;12.840;2023-05-16T02:41:17;1.30;;;0.88;;
19049;SDS011;9657;45.940;12.840;2023-05-16T02:43:46;1.67;;;1.20;;
19049;SDS011;9657;45.940;12.840;2023-05-16T02:46:23;1.95;;;1.25;;
19049;SDS011;9657;45.940;12.840;2023-05-16T02:48:53;1.10;;;1.00;;
19049;SDS011;9657;45.940;12.840;2023-05-16T02:51:20;1.60;;;1.10;;
19049;SDS011;9657;45.940;12.840;2023-05-16T02:53:48;0.95;;;0.88;;
19049;SDS011;9657;45.940;12.840;2023-05-16T02:56:16;1.65;;;1.25;;
19049;SDS011;9657;45.940;12.840;2023-05-16T02:58:45;1.58;;;0.88;;
19049;SDS011;9657;45.940;12.840;2023-05-16T03:01:13;1.20;;;1.00;;
19049;SDS011;9657;45.940;12.840;2023-05-16T03:03:40;1.52;;;1.23;;
19049;SDS011;9657;45.940;12.840;2023-05-16T03:06:09;1.13;;;0.93;;
19049;SDS011;9657;45.940;12.840;2023-05-16T03:08:36;1.83;;;0.82;;
19049;SDS011;9657;45.940;12.840;2023-05-16T03:11:03;2.03;;;0.80;;
19049;SDS011;9657;45.940;12.840;2023-05-16T03:13:30;2.42;;;0.80;;
19049;SDS011;9657;45.940;12.840;2023-05-16T03:15:57;1.83;;;1.00;;
19049;SDS011;9657;45.940;12.840;2023-05-16T03:18:24;1.50;;;1.10;;
19049;SDS011;9657;45.940;12.840;2023-05-16T03:20:51;1.65;;;1.08;;
19049;SDS011;9657;45.940;12.840;2023-05-16T03:23:20;3.15;;;1.55;;
19049;SDS011;9657;45.940;12.840;2023-05-16T03:25:47;2.15;;;0.82;;
19049;SDS011;9657;45.940;12.840;2023-05-16T03:28:15;1.23;;;1.08;;
19049;SDS011;9657;45.940;12.840;2023-05-16T03:30:43;2.42;;;1.10;;
19049;SDS011;9657;45.940;12.840;2023-05-16T03:33:10;1.30;;;1.00;;
19049;SDS011;9657;45.940;12.840;2023-05-16T03:35:37;1.73;;;1.10;;
19049;SDS011;9657;45.940;12.840;2023-05-16T03:38:05;1.13;;;0.93;;
19049;SDS011;9657;45.940;12.840;2023-05-16T03:40:33;2.03;;;1.00;;
19049;SDS011;9657;45.940;12.840;2023-05-16T03:43:00;1.30;;;0.90;;
19049;SDS011;9657;45.940;12.840;2023-05-16T03:45:28;1.17;;;1.00;;
19049;SDS011;9657;45.940;12.840;2023-05-16T03:47:55;1.43;;;1.10;;
19049;SDS011;9657;45.940;12.840;2023-05-16T03:50:22;1.83;;;1.10;;
19049;SDS011;9657;45.940;12.840;2023-05-16T03:52:49;1.95;;;0.93;;
19049;SDS011;9657;45.940;12.840;2023-05-16T03:55:18;2.90;;;1.13;;
19049;SDS011;9657;45.940;12.840;2023-05-16T03:57:46;1.77;;;0.90;;
19049;SDS011;9657;45.940;12.840;2023-05-16T04:00:14;2.80;;;1.30;;
19049;SDS011;9657;45.940;12.840;2023-05-16T04:02:41;0.97;;;0.90;;
19049;SDS011;9657;45.940;12.840;2023-05-16T04:05:09;2.05;;;1.10;;
19049;SDS011;9657;45.940;12.840;2023-05-16T04:07:38;1.67;;;0.98;;
19049;SDS011;9657;45.940;12.840;2023-05-16T04:10:05;1.05;;;0.82;;
19049;SDS011;9657;45.940;12.840;2023-05-16T04:12:32;3.13;;;1.23;;
19049;SDS011;9657;45.940;12.840;2023-05-16T04:15:01;2.63;;;1.00;;
19049;SDS011;9657;45.940;12.840;2023-05-16T04:17:28;1.33;;;1.10;;
19049;SDS011;9657;45.940;12.840;2023-05-16T04:19:55;1.83;;;1.10;;
19049;SDS011;9657;45.940;12.840;2023-05-16T04:22:23;3.20;;;1.20;;
19049;SDS011;9657;45.940;12.840;2023-05-16T04:24:50;1.30;;;0.85;;
19049;SDS011;9657;45.940;12.840;2023-05-16T04:27:17;2.15;;;1.02;;
19049;SDS011;9657;45.940;12.840;2023-05-16T04:29:44;1.20;;;0.90;;
19049;SDS011;9657;45.940;12.840;2023-05-16T04:32:13;1.13;;;1.00;;
19049;SDS011;9657;45.940;12.840;2023-05-16T04:34:41;1.00;;;0.80;;
19049;SDS011;9657;45.940;12.840;2023-05-16T04:37:10;2.17;;;1.00;;
19049;SDS011;9657;45.940;12.840;2023-05-16T04:39:38;1.87;;;1.20;;
19049;SDS011;9657;45.940;12.840;2023-05-16T04:42:05;2.10;;;1.05;;
19049;SDS011;9657;45.940;12.840;2023-05-16T04:44:32;0.77;;;0.70;;
19049;SDS011;9657;45.940;12.840;2023-05-16T04:46:59;1.52;;;0.95;;
19049;SDS011;9657;45.940;12.840;2023-05-16T04:49:28;1.60;;;1.25;;
19049;SDS011;9657;45.940;12.840;2023-05-16T04:51:55;1.20;;;1.10;;
19049;SDS011;9657;45.940;12.840;2023-05-16T04:54:22;2.13;;;1.33;;
19049;SDS011;9657;45.940;12.840;2023-05-16T04:56:50;1.63;;;1.20;;
19049;SDS011;9657;45.940;12.840;2023-05-16T04:59:17;1.48;;;0.90;;
19049;SDS011;9657;45.940;12.840;2023-05-16T05:01:45;3.55;;;1.30;;
19049;SDS011;9657;45.940;12.840;2023-05-16T05:04:12;3.20;;;1.20;;
19049;SDS011;9657;45.940;12.840;2023-05-16T05:06:40;1.38;;;1.10;;
19049;SDS011;9657;45.940;12.840;2023-05-16T05:09:07;1.50;;;1.23;;
19049;SDS011;9657;45.940;12.840;2023-05-16T05:11:35;1.83;;;1.23;;
19049;SDS011;9657;45.940;12.840;2023-05-16T05:14:02;3.40;;;1.35;;
19049;SDS011;9657;45.940;12.840;2023-05-16T05:16:29;1.60;;;1.20;;
19049;SDS011;9657;45.940;12.840;2023-05-16T05:18:57;4.45;;;1.27;;
19049;SDS011;9657;45.940;12.840;2023-05-16T05:21:24;1.52;;;1.15;;
19049;SDS011;9657;45.940;12.840;2023-05-16T05:23:52;3.30;;;1.30;;
19049;SDS011;9657;45.940;12.840;2023-05-16T05:26:19;1.87;;;1.23;;
19049;SDS011;9657;45.940;12.840;2023-05-16T05:28:47;5.88;;;1.45;;
19049;SDS011;9657;45.940;12.840;2023-05-16T05:31:15;3.53;;;1.20;;
19049;SDS011;9657;45.940;12.840;2023-05-16T05:33:42;4.55;;;1.50;;
19049;SDS011;9657;45.940;12.840;2023-05-16T05:36:09;2.78;;;1.33;;
19049;SDS011;9657;45.940;12.840;2023-05-16T05:38:36;2.80;;;1.30;;
19049;SDS011;9657;45.940;12.840;2023-05-16T05:41:04;4.35;;;1.38;;
19049;SDS011;9657;45.940;12.840;2023-05-16T05:43:32;3.45;;;1.10;;
19049;SDS011;9657;45.940;12.840;2023-05-16T05:45:59;2.27;;;1.03;;
19049;SDS011;9657;45.940;12.840;2023-05-16T05:48:26;1.30;;;1.20;;
19049;SDS011;9657;45.940;12.840;2023-05-16T05:50:54;5.85;;;1.30;;
19049;SDS011;9657;45.940;12.840;2023-05-16T05:53:21;2.28;;;1.40;;
19049;SDS011;9657;45.940;12.840;2023-05-16T05:55:48;2.83;;;1.15;;
19049;SDS011;9657;45.940;12.840;2023-05-16T05:58:16;1.93;;;1.53;;
19049;SDS011;9657;45.940;12.840;2023-05-16T06:00:44;4.80;;;1.40;;
19049;SDS011;9657;45.940;12.840;2023-05-16T06:03:11;2.28;;;1.05;;
19049;SDS011;9657;45.940;12.840;2023-05-16T06:05:38;2.28;;;1.10;;
19049;SDS011;9657;45.940;12.840;2023-05-16T06:08:05;2.15;;;1.05;;
19049;SDS011;9657;45.940;12.840;2023-05-16T06:10:32;1.88;;;1.48;;
19049;SDS011;9657;45.940;12.840;2023-05-16T06:12:59;3.17;;;1.40;;
19049;SDS011;9657;45.940;12.840;2023-05-16T06:15:28;6.55;;;1.35;;
19049;SDS011;9657;45.940;12.840;2023-05-16T06:17:55;1.88;;;1.20;;
19049;SDS011;9657;45.940;12.840;2023-05-16T06:20:22;3.30;;;1.13;;
19049;SDS011;9657;45.940;12.840;2023-05-16T06:22:49;2.38;;;1.27;;
19049;SDS011;9657;45.940;12.840;2023-05-16T06:25:16;1.50;;;1.05;;
19049;SDS011;9657;45.940;12.840;2023-05-16T06:27:44;2.28;;;1.20;;
19049;SDS011;9657;45.940;12.840;2023-05-16T06:30:11;2.83;;;1.38;;
19049;SDS011;9657;45.940;12.840;2023-05-16T06:32:39;1.48;;;0.77;;
19049;SDS011;9657;45.940;12.840;2023-05-16T06:35:07;1.40;;;1.10;;
19049;SDS011;9657;45.940;12.840;2023-05-16T06:37:34;1.70;;;1.48;;
19049;SDS011;9657;45.940;12.840;2023-05-16T06:40:01;2.35;;;1.20;;
19049;SDS011;9657;45.940;12.840;2023-05-16T06:42:29;1.35;;;1.15;;
19049;SDS011;9657;45.940;12.840;2023-05-16T06:44:56;1.63;;;0.98;;
19049;SDS011;9657;45.940;12.840;2023-05-16T06:47:23;3.15;;;1.50;;
19049;SDS011;9657;45.940;12.840;2023-05-16T06:49:52;2.53;;;1.40;;
19049;SDS011;9657;45.940;12.840;2023-05-16T06:52:19;1.35;;;1.20;;
19049;SDS011;9657;45.940;12.840;2023-05-16T06:54:47;1.52;;;1.25;;
19049;SDS011;9657;45.940;12.840;2023-05-16T06:57:14;1.65;;;1.20;;
19049;SDS011;9657;45.940;12.840;2023-05-16T06:59:41;1.55;;;1.33;;
19049;SDS011;9657;45.940;12.840;2023-05-16T07:02:08;2.55;;;1.23;;
19049;SDS011;9657;45.940;12.840;2023-05-16T07:04:35;3.47;;;1.48;;
19049;SDS011;9657;45.940;12.840;2023-05-16T07:07:04;2.63;;;1.50;;
19049;SDS011;9657;45.940;12.840;2023-05-16T07:09:33;2.88;;;1.20;;
19049;SDS011;9657;45.940;12.840;2023-05-16T07:12:00;3.05;;;1.67;;
19049;SDS011;9657;45.940;12.840;2023-05-16T07:14:27;1.95;;;1.30;;
19049;SDS011;9657;45.940;12.840;2023-05-16T07:16:54;1.42;;;1.13;;
19049;SDS011;9657;45.940;12.840;2023-05-16T07:19:21;3.15;;;1.80;;
19049;SDS011;9657;45.940;12.840;2023-05-16T07:21:48;2.10;;;1.33;;
19049;SDS011;9657;45.940;12.840;2023-05-16T07:24:16;1.38;;;1.20;;
19049;SDS011;9657;45.940;12.840;2023-05-16T07:26:43;3.03;;;1.50;;
19049;SDS011;9657;45.940;12.840;2023-05-16T07:29:10;1.33;;;1.20;;
19049;SDS011;9657;45.940;12.840;2023-05-16T07:31:38;4.05;;;1.40;;
19049;SDS011;9657;45.940;12.840;2023-05-16T07:34:05;3.22;;;1.58;;
19049;SDS011;9657;45.940;12.840;2023-05-16T07:36:32;1.83;;;1.27;;
19049;SDS011;9657;45.940;12.840;2023-05-16T07:39:00;3.35;;;1.60;;
19049;SDS011;9657;45.940;12.840;2023-05-16T07:41:28;3.20;;;1.33;;
19049;SDS011;9657;45.940;12.840;2023-05-16T07:43:56;2.05;;;1.27;;
19049;SDS011;9657;45.940;12.840;2023-05-16T07:46:23;5.05;;;1.38;;
19049;SDS011;9657;45.940;12.840;2023-05-16T07:48:50;3.50;;;1.60;;
19049;SDS011;9657;45.940;12.840;2023-05-16T07:51:17;4.25;;;1.35;;
19049;SDS011;9657;45.940;12.840;2023-05-16T07:53:44;5.43;;;2.03;;
19049;SDS011;9657;45.940;12.840;2023-05-16T07:56:11;5.65;;;1.75;;
19049;SDS011;9657;45.940;12.840;2023-05-16T07:58:39;5.57;;;2.08;;
19049;SDS011;9657;45.940;12.840;2023-05-16T08:01:06;3.70;;;1.92;;
19049;SDS011;9657;45.940;12.840;2023-05-16T08:03:34;4.82;;;1.60;;
19049;SDS011;9657;45.940;12.840;2023-05-16T08:06:01;8.93;;;2.38;;
19049;SDS011;9657;45.940;12.840;2023-05-16T08:08:28;5.60;;;2.60;;
19049;SDS011;9657;45.940;12.840;2023-05-16T08:10:55;6.05;;;2.13;;
19049;SDS011;9657;45.940;12.840;2023-05-16T08:13:22;3.63;;;2.03;;
19049;SDS011;9657;45.940;12.840;2023-05-16T08:15:51;2.90;;;1.90;;
19049;SDS011;9657;45.940;12.840;2023-05-16T08:18:18;5.32;;;2.17;;
19049;SDS011;9657;45.940;12.840;2023-05-16T08:20:45;6.05;;;2.80;;
19049;SDS011;9657;45.940;12.840;2023-05-16T08:23:12;5.07;;;2.88;;
19049;SDS011;9657;45.940;12.840;2023-05-16T08:25:39;7.07;;;2.35;;
19049;SDS011;9657;45.940;12.840;2023-05-16T08:28:06;5.30;;;2.88;;
19049;SDS011;9657;45.940;12.840;2023-05-16T08:30:33;5.82;;;2.42;;
19049;SDS011;9657;45.940;12.840;2023-05-16T08:33:02;7.28;;;2.33;;
19049;SDS011;9657;45.940;12.840;2023-05-16T08:35:30;6.97;;;2.40;;
19049;SDS011;9657;45.940;12.840;2023-05-16T08:37:59;5.57;;;2.50;;
19049;SDS011;9657;45.940;12.840;2023-05-16T08:40:27;4.68;;;2.55;;
19049;SDS011;9657;45.940;12.840;2023-05-16T08:42:55;4.45;;;2.60;;
19049;SDS011;9657;45.940;12.840;2023-05-16T08:45:22;6.40;;;2.60;;
19049;SDS011;9657;45.940;12.840;2023-05-16T08:47:50;3.55;;;1.98;;
19049;SDS011;9657;45.940;12.840;2023-05-16T08:50:22;6.88;;;2.75;;
19049;SDS011;9657;45.940;12.840;2023-05-16T08:52:50;3.88;;;2.50;;
19049;SDS011;9657;45.940;12.840;2023-05-16T08:55:18;6.85;;;2.40;;
19049;SDS011;9657;45.940;12.840;2023-05-16T08:57:47;5.18;;;2.13;;
19049;SDS011;9657;45.940;12.840;2023-05-16T09:00:15;3.75;;;1.98;;
19049;SDS011;9657;45.940;12.840;2023-05-16T09:02:43;4.43;;;1.58;;
19049;SDS011;9657;45.940;12.840;2023-05-16T09:05:11;8.65;;;2.15;;
19049;SDS011;9657;45.940;12.840;2023-05-16T09:07:41;3.60;;;1.60;;
19049;SDS011;9657;45.940;12.840;2023-05-16T09:10:09;3.63;;;1.58;;
19049;SDS011;9657;45.940;12.840;2023-05-16T09:12:37;2.90;;;1.33;;
19049;SDS011;9657;45.940;12.840;2023-05-16T09:15:06;8.48;;;1.60;;
19049;SDS011;9657;45.940;12.840;2023-05-16T09:17:35;4.22;;;1.30;;
19049;SDS011;9657;45.940;12.840;2023-05-16T09:20:10;3.13;;;1.60;;
19049;SDS011;9657;45.940;12.840;2023-05-16T09:22:38;7.28;;;1.75;;
19049;SDS011;9657;45.940;12.840;2023-05-16T09:25:07;11.90;;;2.03;;
19049;SDS011;9657;45.940;12.840;2023-05-16T09:27:41;7.35;;;2.25;;
19049;SDS011;9657;45.940;12.840;2023-05-16T09:30:09;13.63;;;2.65;;
19049;SDS011;9657;45.940;12.840;2023-05-16T09:32:39;12.35;;;2.15;;
19049;SDS011;9657;45.940;12.840;2023-05-16T09:35:10;6.13;;;1.70;;
19049;SDS011;9657;45.940;12.840;2023-05-16T09:37:43;6.78;;;1.90;;
19049;SDS011;9657;45.940;12.840;2023-05-16T09:40:12;8.80;;;1.85;;
19049;SDS011;9657;45.940;12.840;2023-05-16T09:42:40;9.38;;;2.35;;
19049;SDS011;9657;45.940;12.840;2023-05-16T09:45:10;8.60;;;2.00;;
19049;SDS011;9657;45.940;12.840;2023-05-16T09:47:38;6.65;;;1.98;;
19049;SDS011;9657;45.940;12.840;2023-05-16T09:50:10;7.72;;;1.75;;
19049;SDS011;9657;45.940;12.840;2023-05-16T09:52:40;8.38;;;2.25;;
19049;SDS011;9657;45.940;12.840;2023-05-16T09:55:07;6.05;;;1.92;;
19049;SDS011;9657;45.940;12.840;2023-05-16T09:57:39;7.82;;;1.85;;
19049;SDS011;9657;45.940;12.840;2023-05-16T10:00:08;8.57;;;1.98;;
19049;SDS011;9657;45.940;12.840;2023-05-16T10:02:37;5.82;;;1.75;;
19049;SDS011;9657;45.940;12.840;2023-05-16T10:05:05;6.47;;;1.92;;
19049;SDS011;9657;45.940;12.840;2023-05-16T10:07:32;4.97;;;1.63;;
19049;SDS011;9657;45.940;12.840;2023-05-16T10:10:00;6.70;;;1.60;;
19049;SDS011;9657;45.940;12.840;2023-05-16T10:12:31;4.65;;;1.65;;
19049;SDS011;9657;45.940;12.840;2023-05-16T10:15:00;5.63;;;1.40;;
19049;SDS011;9657;45.940;12.840;2023-05-16T10:17:29;7.37;;;2.03;;
19049;SDS011;9657;45.940;12.840;2023-05-16T10:19:59;6.40;;;1.50;;
19049;SDS011;9657;45.940;12.840;2023-05-16T10:22:30;8.38;;;1.88;;
19049;SDS011;9657;45.940;12.840;2023-05-16T10:25:03;9.93;;;1.70;;
19049;SDS011;9657;45.940;12.840;2023-05-16T10:27:35;6.57;;;1.53;;
19049;SDS011;9657;45.940;12.840;2023-05-16T10:30:05;7.05;;;1.50;;
19049;SDS011;9657;45.940;12.840;2023-05-16T10:32:35;5.90;;;1.60;;
19049;SDS011;9657;45.940;12.840;2023-05-16T10:35:03;3.40;;;1.73;;
19049;SDS011;9657;45.940;12.840;2023-05-16T10:37:30;4.80;;;1.53;;
19049;SDS011;9657;45.940;12.840;2023-05-16T10:39:58;6.57;;;1.70;;
19049;SDS011;9657;45.940;12.840;2023-05-16T10:42:30;8.63;;;1.90;;
19049;SDS011;9657;45.940;12.840;2023-05-16T10:45:09;3.13;;;1.58;;
19049;SDS011;9657;45.940;12.840;2023-05-16T10:47:49;5.30;;;1.50;;
19049;SDS011;9657;45.940;12.840;2023-05-16T10:50:29;6.68;;;1.65;;
19049;SDS011;9657;45.940;12.840;2023-05-16T10:53:09;7.28;;;1.40;;
19049;SDS011;9657;45.940;12.840;2023-05-16T10:55:47;3.67;;;1.15;;
19049;SDS011;9657;45.940;12.840;2023-05-16T10:58:22;6.07;;;1.73;;
19049;SDS011;9657;45.940;12.840;2023-05-16T11:06:27;5.18;;;1.60;;
19049;SDS011;9657;45.940;12.840;2023-05-16T11:08:57;3.13;;;1.23;;
19049;SDS011;9657;45.940;12.840;2023-05-16T11:11:40;6.10;;;1.50;;
19049;SDS011;9657;45.940;12.840;2023-05-16T11:14:15;4.35;;;1.48;;
19049;SDS011;9657;45.940;12.840;2023-05-16T11:16:48;3.72;;;1.20;;
19049;SDS011;9657;45.940;12.840;2023-05-16T11:19:33;4.22;;;1.55;;
19049;SDS011;9657;45.940;12.840;2023-05-16T11:22:11;4.72;;;1.30;;
19049;SDS011;9657;45.940;12.840;2023-05-16T11:24:54;3.77;;;1.33;;
19049;SDS011;9657;45.940;12.840;2023-05-16T11:27:24;4.40;;;1.42;;
19049;SDS011;9657;45.940;12.840;2023-05-16T11:29:52;2.03;;;0.87;;
19049;SDS011;9657;45.940;12.840;2023-05-16T11:32:21;3.78;;;1.08;;
19049;SDS011;9657;45.940;12.840;2023-05-16T11:34:49;1.73;;;1.10;;
19049;SDS011;9657;45.940;12.840;2023-05-16T11:37:17;3.23;;;1.07;;
19049;SDS011;9657;45.940;12.840;2023-05-16T11:39:45;2.23;;;1.23;;
19049;SDS011;9657;45.940;12.840;2023-05-16T11:42:13;4.03;;;1.00;;
19049;SDS011;9657;45.940;12.840;2023-05-16T11:44:40;1.52;;;0.90;;
19049;SDS011;9657;45.940;12.840;2023-05-16T11:47:07;2.27;;;1.23;;
19049;SDS011;9657;45.940;12.840;2023-05-16T11:49:35;2.20;;;1.33;;
19049;SDS011;9657;45.940;12.840;2023-05-16T11:52:03;4.78;;;0.90;;
19049;SDS011;9657;45.940;12.840;2023-05-16T11:54:30;3.63;;;0.90;;
19049;SDS011;9657;45.940;12.840;2023-05-16T11:56:59;2.47;;;0.93;;
19049;SDS011;9657;45.940;12.840;2023-05-16T11:59:27;4.10;;;1.08;;
19049;SDS011;9657;45.940;12.840;2023-05-16T12:01:55;3.78;;;1.08;;
19049;SDS011;9657;45.940;12.840;2023-05-16T12:04:22;2.70;;;1.35;;
19049;SDS011;9657;45.940;12.840;2023-05-16T12:07:00;2.63;;;1.13;;
19049;SDS011;9657;45.940;12.840;2023-05-16T12:09:28;1.63;;;1.00;;
19049;SDS011;9657;45.940;12.840;2023-05-16T12:11:55;2.00;;;1.23;;
19049;SDS011;9657;45.940;12.840;2023-05-16T12:14:22;5.10;;;1.10;;
19049;SDS011;9657;45.940;12.840;2023-05-16T12:16:51;2.30;;;0.82;;
19049;SDS011;9657;45.940;12.840;2023-05-16T12:19:19;6.60;;;1.20;;
19049;SDS011;9657;45.940;12.840;2023-05-16T12:21:47;2.10;;;0.83;;
19049;SDS011;9657;45.940;12.840;2023-05-16T12:24:18;1.00;;;0.77;;
19049;SDS011;9657;45.940;12.840;2023-05-16T12:26:46;1.60;;;0.70;;
19049;SDS011;9657;45.940;12.840;2023-05-16T12:29:13;2.65;;;0.90;;
19049;SDS011;9657;45.940;12.840;2023-05-16T12:31:40;2.75;;;1.20;;
19049;SDS011;9657;45.940;12.840;2023-05-16T12:34:14;1.53;;;0.97;;
19049;SDS011;9657;45.940;12.840;2023-05-16T12:36:42;1.52;;;0.68;;
19049;SDS011;9657;45.940;12.840;2023-05-16T12:39:10;1.23;;;0.90;;
19049;SDS011;9657;45.940;12.840;2023-05-16T12:41:41;1.90;;;1.00;;
19049;SDS011;9657;45.940;12.840;2023-05-16T12:44:11;2.28;;;0.88;;
19049;SDS011;9657;45.940;12.840;2023-05-16T12:46:41;1.33;;;0.87;;
19049;SDS011;9657;45.940;12.840;2023-05-16T12:49:09;1.58;;;0.80;;
19049;SDS011;9657;45.940;12.840;2023-05-16T12:51:37;2.60;;;1.05;;
19049;SDS011;9657;45.940;12.840;2023-05-16T12:54:08;2.45;;;0.70;;
19049;SDS011;9657;45.940;12.840;2023-05-16T12:56:37;1.73;;;0.90;;
19049;SDS011;9657;45.940;12.840;2023-05-16T12:59:06;2.53;;;0.88;;
19049;SDS011;9657;45.940;12.840;2023-05-16T13:01:34;2.47;;;0.88;;
19049;SDS011;9657;45.940;12.840;2023-05-16T13:04:01;1.87;;;0.70;;
19049;SDS011;9657;45.940;12.840;2023-05-16T13:06:29;3.70;;;0.88;;
19049;SDS011;9657;45.940;12.840;2023-05-16T13:08:56;1.50;;;0.80;;
19049;SDS011;9657;45.940;12.840;2023-05-16T13:11:23;1.67;;;0.90;;
19049;SDS011;9657;45.940;12.840;2023-05-16T13:13:51;2.00;;;0.85;;
19049;SDS011;9657;45.940;12.840;2023-05-16T13:16:19;3.13;;;0.70;;
19049;SDS011;9657;45.940;12.840;2023-05-16T13:18:46;2.55;;;0.98;;
19049;SDS011;9657;45.940;12.840;2023-05-16T13:21:13;1.52;;;0.70;;
19049;SDS011;9657;45.940;12.840;2023-05-16T13:23:40;1.08;;;0.73;;
19049;SDS011;9657;45.940;12.840;2023-05-16T13:26:07;1.95;;;0.85;;
19049;SDS011;9657;45.940;12.840;2023-05-16T13:28:34;3.10;;;0.80;;
19049;SDS011;9657;45.940;12.840;2023-05-16T13:31:02;1.35;;;0.70;;
19049;SDS011;9657;45.940;12.840;2023-05-16T13:33:31;1.30;;;0.80;;
19049;SDS011;9657;45.940;12.840;2023-05-16T13:36:00;2.50;;;0.70;;
19049;SDS011;9657;45.940;12.840;2023-05-16T13:38:28;1.90;;;0.70;;
19049;SDS011;9657;45.940;12.840;2023-05-16T13:40:55;1.63;;;0.73;;
19049;SDS011;9657;45.940;12.840;2023-05-16T13:43:22;2.08;;;0.68;;
19049;SDS011;9657;45.940;12.840;2023-05-16T13:45:49;2.17;;;0.90;;
19049;SDS011;9657;45.940;12.840;2023-05-16T13:48:16;1.15;;;0.75;;
19049;SDS011;9657;45.940;12.840;2023-05-16T13:50:44;1.00;;;0.90;;
19049;SDS011;9657;45.940;12.840;2023-05-16T13:53:12;1.37;;;0.70;;
19049;SDS011;9657;45.940;12.840;2023-05-16T13:55:39;1.02;;;0.50;;
19049;SDS011;9657;45.940;12.840;2023-05-16T13:58:06;1.23;;;0.70;;
19049;SDS011;9657;45.940;12.840;2023-05-16T14:00:33;3.03;;;0.90;;
19049;SDS011;9657;45.940;12.840;2023-05-16T14:03:00;1.27;;;0.70;;
19049;SDS011;9657;45.940;12.840;2023-05-16T14:05:27;1.65;;;0.75;;
19049;SDS011;9657;45.940;12.840;2023-05-16T14:07:56;1.47;;;0.63;;
19049;SDS011;9657;45.940;12.840;2023-05-16T14:10:23;1.25;;;0.63;;
19049;SDS011;9657;45.940;12.840;2023-05-16T14:12:50;2.35;;;0.60;;
19049;SDS011;9657;45.940;12.840;2023-05-16T14:15:19;0.90;;;0.70;;
19049;SDS011;9657;45.940;12.840;2023-05-16T14:17:47;1.20;;;0.80;;
19049;SDS011;9657;45.940;12.840;2023-05-16T14:20:14;0.88;;;0.60;;
19049;SDS011;9657;45.940;12.840;2023-05-16T14:22:41;0.90;;;0.50;;
19049;SDS011;9657;45.940;12.840;2023-05-16T14:25:09;0.60;;;0.53;;
19049;SDS011;9657;45.940;12.840;2023-05-16T14:27:36;2.15;;;0.80;;
19049;SDS011;9657;45.940;12.840;2023-05-16T14:30:04;1.00;;;0.47;;
19049;SDS011;9657;45.940;12.840;2023-05-16T14:32:32;1.25;;;0.70;;
19049;SDS011;9657;45.940;12.840;2023-05-16T14:34:59;1.45;;;0.50;;
19049;SDS011;9657;45.940;12.840;2023-05-16T14:37:26;2.30;;;0.70;;
19049;SDS011;9657;45.940;12.840;2023-05-16T14:39:53;2.27;;;0.73;;
19049;SDS011;9657;45.940;12.840;2023-05-16T14:42:22;1.00;;;0.70;;
19049;SDS011;9657;45.940;12.840;2023-05-16T14:44:49;0.75;;;0.70;;
19049;SDS011;9657;45.940;12.840;2023-05-16T14:47:16;3.72;;;0.60;;
19049;SDS011;9657;45.940;12.840;2023-05-16T14:49:44;2.17;;;0.50;;
19049;SDS011;9657;45.940;12.840;2023-05-16T14:52:11;0.60;;;0.50;;
19049;SDS011;9657;45.940;12.840;2023-05-16T14:54:38;2.83;;;0.52;;
19049;SDS011;9657;45.940;12.840;2023-05-16T14:57:05;1.80;;;0.73;;
19049;SDS011;9657;45.940;12.840;2023-05-16T14:59:33;1.70;;;0.70;;
19049;SDS011;9657;45.940;12.840;2023-05-16T15:02:01;1.88;;;0.52;;
19049;SDS011;9657;45.940;12.840;2023-05-16T15:04:28;1.08;;;0.70;;